createdAt,value
2023-07-14T00:01:04.255Z,1.60
2023-07-14T00:03:59.090Z,1.70
2023-07-14T00:06:51.676Z,1.42
2023-07-14T00:09:45.445Z,1.80
2023-07-14T00:12:38.883Z,2.20
2023-07-14T00:15:32.268Z,2.08
2023-07-14T00:18:28.770Z,2.55
2023-07-14T00:21:24.381Z,2.20
2023-07-14T00:24:19.981Z,1.80
2023-07-14T00:27:19.790Z,1.70
2023-07-14T00:30:19.116Z,1.88
2023-07-14T00:33:15.314Z,1.83
2023-07-14T00:36:10.516Z,1.50
2023-07-14T00:39:04.299Z,1.58
2023-07-14T00:41:58.434Z,1.60
2023-07-14T00:44:55.569Z,1.50
2023-07-14T00:47:53.990Z,1.60
2023-07-14T00:50:52.618Z,1.90
2023-07-14T00:53:47.107Z,1.65
2023-07-14T00:56:45.766Z,1.60
2023-07-14T00:59:38.963Z,1.65
2023-07-14T01:02:31.924Z,1.98
2023-07-14T01:05:25.720Z,1.90
2023-07-14T01:08:19.393Z,1.98
2023-07-14T01:11:16.581Z,1.75
2023-07-14T01:14:17.401Z,1.95
2023-07-14T01:17:11.559Z,2.10
2023-07-14T01:20:09.272Z,1.77
2023-07-14T01:23:16.465Z,1.70
2023-07-14T01:26:20.586Z,1.80
2023-07-14T01:29:15.219Z,1.52
2023-07-14T01:32:17.468Z,1.58
2023-07-14T01:35:11.769Z,1.67
2023-07-14T01:38:05.357Z,1.75
2023-07-14T01:40:59.217Z,2.00
2023-07-14T01:43:54.649Z,1.88
2023-07-14T01:46:50.965Z,2.00
2023-07-14T01:49:47.739Z,1.90
2023-07-14T01:52:40.915Z,1.67
2023-07-14T01:55:36.738Z,2.00
2023-07-14T01:58:34.430Z,1.80
2023-07-14T02:01:29.801Z,1.55
2023-07-14T02:04:28.590Z,1.95
2023-07-14T02:07:22.364Z,1.60
2023-07-14T02:10:18.740Z,1.80
2023-07-14T02:13:13.479Z,1.83
2023-07-14T02:16:07.392Z,1.90
2023-07-14T02:19:00.768Z,1.90
2023-07-14T02:21:56.386Z,1.80
2023-07-14T02:24:51.022Z,1.73
2023-07-14T02:27:43.704Z,1.80
2023-07-14T02:30:38.839Z,1.67
2023-07-14T02:33:37.805Z,1.65
2023-07-14T02:36:44.469Z,2.10
2023-07-14T02:39:40.124Z,1.80
2023-07-14T02:42:38.822Z,2.20
2023-07-14T02:45:33.989Z,1.77
2023-07-14T02:48:33.004Z,1.50
2023-07-14T02:51:26.157Z,1.98
2023-07-14T02:54:19.225Z,1.90
2023-07-14T02:57:13.542Z,1.90
2023-07-14T03:00:09.350Z,2.03
2023-07-14T03:03:03.014Z,1.48
2023-07-14T03:05:56.269Z,1.70
2023-07-14T03:08:48.826Z,1.90
2023-07-14T03:11:41.896Z,1.90
2023-07-14T03:14:36.265Z,1.95
2023-07-14T03:17:29.171Z,2.03
2023-07-14T03:20:22.094Z,1.80
2023-07-14T03:23:15.489Z,1.70
2023-07-14T03:26:10.597Z,1.92
2023-07-14T03:29:04.300Z,1.75
2023-07-14T03:31:59.192Z,1.90
2023-07-14T03:34:52.004Z,2.10
2023-07-14T03:37:44.915Z,1.88
2023-07-14T03:40:37.959Z,1.60
2023-07-14T03:43:31.424Z,1.85
2023-07-14T03:46:25.262Z,1.60
2023-07-14T03:49:20.617Z,1.70
2023-07-14T03:52:14.846Z,1.67
2023-07-14T03:55:09.046Z,1.50
2023-07-14T03:58:04.383Z,1.80
2023-07-14T04:01:01.341Z,1.70
2023-07-14T04:03:57.384Z,1.63
2023-07-14T04:06:53.315Z,2.03
2023-07-14T04:09:46.209Z,1.92
2023-07-14T04:12:39.411Z,2.20
2023-07-14T04:15:33.413Z,1.80
2023-07-14T04:18:27.710Z,1.85
2023-07-14T04:21:25.667Z,1.77
2023-07-14T04:24:19.985Z,1.70
2023-07-14T04:27:13.957Z,1.65
2023-07-14T04:30:09.094Z,1.60
2023-07-14T04:33:02.457Z,1.90
2023-07-14T04:35:57.549Z,1.70
2023-07-14T04:39:04.703Z,1.95
2023-07-14T04:41:59.835Z,1.88
2023-07-14T04:44:53.219Z,1.83
2023-07-14T04:47:46.148Z,1.63
2023-07-14T04:50:39.464Z,2.33
2023-07-14T04:53:32.831Z,2.00
2023-07-14T04:56:26.734Z,1.80
2023-07-14T04:59:21.560Z,2.13
2023-07-14T05:02:15.400Z,1.80
2023-07-14T05:05:15.914Z,1.85
2023-07-14T05:08:09.760Z,1.90
2023-07-14T05:11:03.252Z,1.60
2023-07-14T05:13:56.249Z,1.85
2023-07-14T05:16:50.563Z,1.70
2023-07-14T05:19:44.388Z,1.90
2023-07-14T05:22:38.420Z,1.80
2023-07-14T05:25:32.228Z,1.65
2023-07-14T05:28:25.345Z,1.80
2023-07-14T05:31:18.341Z,1.77
2023-07-14T05:34:13.510Z,1.77
2023-07-14T05:37:07.368Z,2.17
2023-07-14T05:40:00.328Z,2.45
2023-07-14T05:42:53.425Z,2.13
2023-07-14T05:45:48.470Z,1.90
2023-07-14T05:48:42.198Z,1.88
2023-07-14T05:51:36.407Z,2.13
2023-07-14T05:54:29.581Z,2.10
2023-07-14T05:57:23.166Z,1.90
2023-07-14T06:00:20.105Z,2.10
2023-07-14T06:03:17.198Z,1.98
2023-07-14T06:06:11.625Z,2.13
2023-07-14T06:09:07.072Z,1.98
2023-07-14T06:12:00.297Z,1.92
2023-07-14T06:14:53.136Z,1.85
2023-07-14T06:17:46.218Z,2.03
2023-07-14T06:20:39.327Z,1.70
2023-07-14T06:23:32.035Z,1.95
2023-07-14T06:26:26.998Z,2.17
2023-07-14T06:29:20.461Z,1.77
2023-07-14T06:32:16.567Z,2.70
2023-07-14T06:35:11.530Z,3.20
2023-07-14T06:38:05.088Z,2.50
2023-07-14T06:40:58.584Z,2.33
2023-07-14T06:43:54.438Z,2.17
2023-07-14T06:46:47.351Z,2.40
2023-07-14T06:49:40.231Z,2.38
2023-07-14T06:52:33.473Z,2.55
2023-07-14T06:55:26.246Z,2.53
2023-07-14T06:58:18.920Z,2.28
2023-07-14T07:01:13.699Z,2.30
2023-07-14T07:04:07.611Z,2.13
2023-07-14T07:07:01.312Z,2.08
2023-07-14T07:09:56.325Z,2.40
2023-07-14T07:12:49.160Z,2.13
2023-07-14T07:15:42.962Z,2.10
2023-07-14T07:18:38.420Z,1.83
2023-07-14T07:21:31.867Z,2.00
2023-07-14T07:24:25.125Z,2.55
2023-07-14T07:27:19.209Z,1.60
2023-07-14T07:30:12.992Z,2.00
2023-07-14T07:33:06.478Z,2.10
2023-07-14T07:36:00.652Z,1.70
2023-07-14T07:38:54.902Z,1.70
2023-07-14T07:41:48.686Z,1.85
2023-07-14T07:44:42.484Z,2.15
2023-07-14T07:47:35.469Z,2.33
2023-07-14T07:50:29.759Z,2.25
2023-07-14T07:53:24.540Z,2.33
2023-07-14T07:56:18.658Z,2.17
2023-07-14T07:59:12.036Z,2.95
2023-07-14T08:02:08.023Z,2.90
2023-07-14T08:05:01.338Z,2.85
2023-07-14T08:07:54.606Z,2.63
2023-07-14T08:10:49.519Z,2.22
2023-07-14T08:13:43.474Z,2.13
2023-07-14T08:16:36.116Z,2.17
2023-07-14T08:19:29.199Z,1.80
2023-07-14T08:22:23.991Z,1.80
2023-07-14T08:25:17.330Z,2.42
2023-07-14T08:28:11.767Z,2.30
2023-07-14T08:31:08.192Z,2.10
2023-07-14T08:34:01.366Z,1.90
2023-07-14T08:36:54.027Z,1.63
2023-07-14T08:39:47.460Z,1.77
2023-07-14T08:42:47.233Z,1.95
2023-07-14T08:45:52.906Z,1.92
2023-07-14T08:48:54.884Z,2.08
2023-07-14T08:51:48.237Z,2.10
2023-07-14T08:54:47.421Z,1.85
2023-07-14T08:57:46.430Z,2.13
2023-07-14T09:00:45.695Z,2.40
2023-07-14T09:03:45.431Z,2.50
2023-07-14T09:06:40.766Z,2.47
2023-07-14T09:09:37.062Z,1.95
2023-07-14T09:12:38.373Z,2.20
2023-07-14T09:15:31.400Z,1.83
2023-07-14T09:18:45.150Z,2.50
2023-07-14T09:21:41.925Z,2.20
2023-07-14T09:24:44.518Z,2.00
2023-07-14T09:27:38.507Z,2.20
2023-07-14T09:30:32.140Z,2.10
2023-07-14T09:33:27.429Z,1.75
2023-07-14T09:36:23.255Z,2.00
2023-07-14T09:39:23.280Z,1.92
2023-07-14T09:42:26.166Z,2.17
2023-07-14T09:45:22.053Z,2.03
2023-07-14T09:48:18.714Z,2.05
2023-07-14T09:51:16.451Z,2.35
2023-07-14T09:54:14.217Z,2.28
2023-07-14T09:57:18.894Z,2.28
2023-07-14T10:00:26.490Z,1.85
2023-07-14T10:03:37.646Z,2.20
2023-07-14T10:06:35.282Z,2.13
2023-07-14T10:09:30.173Z,2.50
2023-07-14T10:12:23.711Z,2.20
2023-07-14T10:15:32.670Z,1.92
2023-07-14T10:18:28.656Z,1.77
2023-07-14T10:21:28.647Z,1.90
2023-07-14T10:24:25.534Z,1.80
2023-07-14T10:27:26.486Z,2.28
2023-07-14T10:30:36.304Z,2.10
2023-07-14T10:33:39.539Z,1.83
2023-07-14T10:36:38.750Z,1.83
2023-07-14T10:39:38.764Z,1.67
2023-07-14T10:42:38.020Z,1.60
2023-07-14T10:45:33.277Z,1.60
2023-07-14T10:48:32.160Z,1.80
2023-07-14T10:51:34.600Z,2.10
2023-07-14T10:54:46.813Z,2.00
2023-07-14T10:57:45.580Z,1.98
2023-07-14T11:00:46.428Z,1.63
2023-07-14T11:03:45.673Z,1.98
2023-07-14T11:06:44.034Z,2.03
2023-07-14T11:09:37.528Z,1.77
2023-07-14T11:12:39.836Z,1.60
2023-07-14T11:15:43.278Z,1.65
2023-07-14T11:18:48.259Z,1.92
2023-07-14T11:21:47.518Z,1.70
2023-07-14T11:24:50.058Z,1.73
2023-07-14T11:27:49.361Z,1.60
2023-07-14T11:30:50.359Z,2.05
2023-07-14T11:33:48.984Z,1.63
2023-07-14T11:36:50.004Z,1.90
2023-07-14T11:39:47.244Z,1.20
2023-07-14T11:42:41.149Z,1.45
2023-07-14T11:45:35.787Z,1.70
2023-07-14T11:48:37.718Z,1.63
2023-07-14T11:51:51.164Z,1.70
2023-07-14T11:54:56.687Z,1.67
2023-07-14T11:57:51.623Z,1.40
2023-07-14T12:00:49.665Z,1.40
2023-07-14T12:03:50.710Z,1.52
2023-07-14T12:06:47.370Z,1.80
2023-07-14T12:09:59.756Z,1.55
2023-07-14T12:13:22.161Z,1.80
2023-07-14T12:16:22.781Z,1.83
2023-07-14T12:19:27.601Z,1.50
2023-07-14T12:22:39.361Z,1.58
2023-07-14T12:25:42.155Z,1.98
2023-07-14T12:28:39.510Z,1.73
2023-07-14T12:31:36.612Z,1.80
2023-07-14T12:34:33.978Z,1.95
2023-07-14T12:37:27.446Z,1.50
2023-07-14T12:40:22.286Z,1.90
2023-07-14T12:43:33.356Z,1.50
2023-07-14T12:46:29.754Z,1.90
2023-07-14T12:49:32.464Z,2.10
2023-07-14T12:52:29.848Z,1.63
2023-07-14T12:55:26.692Z,1.98
2023-07-14T12:58:23.265Z,1.88
2023-07-14T13:01:19.786Z,1.75
2023-07-14T13:04:14.426Z,1.90
2023-07-14T13:07:14.284Z,1.83
2023-07-14T13:10:17.582Z,1.80
2023-07-14T13:13:19.195Z,1.63
2023-07-14T13:16:13.931Z,1.70
2023-07-14T13:19:24.375Z,1.98
2023-07-14T13:22:23.409Z,1.80
2023-07-14T13:25:21.363Z,2.00
2023-07-14T13:28:27.823Z,1.75
2023-07-14T13:31:27.562Z,1.45
2023-07-14T13:34:24.857Z,1.90
2023-07-14T13:37:19.565Z,1.88
2023-07-14T13:40:22.337Z,1.70
2023-07-14T13:43:22.094Z,1.80
2023-07-14T13:46:18.388Z,2.20
2023-07-14T13:49:11.876Z,1.88
2023-07-14T13:52:11.960Z,1.70
2023-07-14T13:55:13.852Z,1.45
2023-07-14T13:58:13.163Z,1.35
2023-07-14T14:01:06.425Z,1.90
2023-07-14T14:04:00.040Z,1.60
2023-07-14T14:06:55.976Z,1.90
2023-07-14T14:09:49.922Z,2.00
2023-07-14T14:12:43.694Z,1.77
2023-07-14T14:15:45.352Z,2.08
2023-07-14T14:18:42.659Z,2.00
2023-07-14T14:21:36.141Z,1.98
2023-07-14T14:24:29.823Z,1.70
2023-07-14T14:27:22.512Z,1.80
2023-07-14T14:30:19.158Z,2.28
2023-07-14T14:33:17.208Z,1.85
2023-07-14T14:36:10.898Z,2.22
2023-07-14T14:39:07.162Z,1.98
2023-07-14T14:42:01.681Z,2.13
2023-07-14T14:44:54.439Z,1.80
2023-07-14T14:47:48.371Z,2.20
2023-07-14T14:50:43.413Z,2.38
2023-07-14T14:53:36.973Z,2.10
2023-07-14T14:56:34.602Z,1.90
2023-07-14T14:59:28.501Z,1.67
2023-07-14T15:02:21.443Z,1.85
2023-07-14T15:05:17.773Z,2.17
2023-07-14T15:08:13.524Z,2.38
2023-07-14T15:11:06.868Z,2.40
2023-07-14T15:14:04.004Z,2.10
2023-07-14T15:16:58.374Z,2.22
2023-07-14T15:19:52.203Z,1.90
2023-07-14T15:22:45.916Z,2.50
2023-07-14T15:25:44.251Z,2.10
2023-07-14T15:28:37.709Z,2.20
2023-07-14T15:31:31.196Z,2.15
2023-07-14T15:34:24.667Z,2.47
2023-07-14T15:37:17.729Z,2.35
2023-07-14T15:40:16.049Z,2.38
2023-07-14T15:43:20.304Z,2.47
2023-07-14T15:46:13.818Z,1.90
2023-07-14T15:49:11.556Z,1.95
2023-07-14T15:52:05.471Z,2.35
2023-07-14T15:54:58.877Z,2.17
2023-07-14T15:57:52.393Z,2.00
2023-07-14T16:00:47.108Z,2.38
2023-07-14T16:03:41.279Z,2.20
2023-07-14T16:06:42.850Z,2.10
2023-07-14T16:09:35.867Z,2.47
2023-07-14T16:12:28.646Z,2.10
2023-07-14T16:15:26.133Z,2.30
2023-07-14T16:18:21.318Z,2.33
2023-07-14T16:21:25.155Z,2.17
2023-07-14T16:24:20.926Z,2.08
2023-07-14T16:27:26.287Z,2.15
2023-07-14T16:30:25.108Z,2.22
2023-07-14T16:33:21.033Z,2.58
2023-07-14T16:36:17.316Z,2.35
2023-07-14T16:39:15.487Z,2.10
2023-07-14T16:42:12.617Z,1.95
2023-07-14T16:45:14.301Z,2.58
2023-07-14T16:48:07.936Z,2.20
2023-07-14T16:51:05.459Z,2.13
2023-07-14T16:54:00.251Z,2.30
2023-07-14T16:56:54.362Z,2.20
2023-07-14T16:59:48.485Z,1.70
2023-07-14T17:02:44.071Z,2.10
2023-07-14T17:05:39.812Z,2.17
2023-07-14T17:08:34.671Z,2.17
2023-07-14T17:11:30.616Z,2.15
2023-07-14T17:14:29.070Z,2.63
2023-07-14T17:17:23.555Z,2.35
2023-07-14T17:20:19.360Z,2.10
2023-07-14T17:23:15.999Z,1.75
2023-07-14T17:26:13.338Z,2.33
2023-07-14T17:29:06.848Z,2.17
2023-07-14T17:32:04.048Z,2.50
2023-07-14T17:34:58.513Z,2.13
2023-07-14T17:37:53.381Z,2.20
2023-07-14T17:40:47.099Z,2.05
2023-07-14T17:43:42.158Z,2.28
2023-07-14T17:46:35.882Z,2.20
2023-07-14T17:49:28.787Z,2.20
2023-07-14T17:52:21.910Z,2.05
2023-07-14T17:55:20.104Z,2.30
2023-07-14T17:58:15.464Z,1.98
2023-07-14T18:01:17.313Z,1.98
2023-07-14T18:04:13.050Z,2.05
2023-07-14T18:07:11.795Z,2.67
2023-07-14T18:10:06.716Z,2.20
2023-07-14T18:12:59.736Z,2.22
2023-07-14T18:15:53.015Z,2.35
2023-07-14T18:18:47.178Z,2.47
2023-07-14T18:21:40.762Z,2.80
2023-07-14T18:24:43.446Z,2.20
2023-07-14T18:27:38.814Z,1.95
2023-07-14T18:30:32.830Z,2.20
2023-07-14T18:33:28.709Z,2.08
2023-07-14T18:36:25.549Z,2.45
2023-07-14T18:39:18.928Z,2.45
2023-07-14T18:42:14.465Z,3.00
2023-07-14T18:45:16.927Z,3.13
2023-07-14T18:48:17.086Z,2.88
2023-07-14T18:51:18.821Z,3.20
2023-07-14T18:54:19.911Z,2.70
2023-07-14T18:57:18.537Z,2.20
2023-07-14T19:00:21.039Z,2.80
2023-07-14T19:03:17.708Z,2.58
2023-07-14T19:06:15.760Z,2.38
2023-07-14T19:09:17.089Z,2.42
2023-07-14T19:12:13.501Z,2.78
2023-07-14T19:15:20.777Z,2.80
2023-07-14T19:18:22.630Z,2.80
2023-07-14T19:21:19.004Z,2.58
2023-07-14T19:24:14.569Z,3.13
2023-07-14T19:27:14.972Z,3.20
2023-07-14T19:30:15.639Z,2.72
2023-07-14T19:33:16.395Z,2.95
2023-07-14T19:36:10.612Z,2.92
2023-07-14T19:39:05.734Z,3.00
2023-07-14T19:42:01.438Z,2.90
2023-07-14T19:45:00.575Z,2.83
2023-07-14T19:47:53.908Z,2.83
2023-07-14T19:50:49.285Z,2.95
2023-07-14T19:53:43.210Z,2.83
2023-07-14T19:56:36.761Z,2.83
2023-07-14T19:59:33.325Z,3.10
2023-07-14T20:02:30.748Z,3.20
2023-07-14T20:05:26.028Z,2.97
2023-07-14T20:08:21.558Z,3.17
2023-07-14T20:11:16.712Z,3.30
2023-07-14T20:14:28.604Z,3.58
2023-07-14T20:17:22.832Z,2.97
2023-07-14T20:20:17.202Z,3.33
2023-07-14T20:23:20.222Z,3.50
2023-07-14T20:26:18.222Z,3.40
2023-07-14T20:29:11.967Z,4.00
2023-07-14T20:32:05.047Z,3.63
2023-07-14T20:35:01.512Z,3.70
2023-07-14T20:37:56.276Z,3.15
2023-07-14T20:40:52.862Z,3.88
2023-07-14T20:43:46.671Z,4.25
2023-07-14T20:46:40.583Z,4.15
2023-07-14T20:49:35.370Z,3.78
2023-07-14T20:52:29.994Z,5.15
2023-07-14T20:55:29.922Z,4.47
2023-07-14T20:58:24.086Z,4.10
2023-07-14T21:01:21.014Z,3.90
2023-07-14T21:04:21.700Z,3.85
2023-07-14T21:07:15.942Z,3.97
2023-07-14T21:10:11.813Z,3.85
2023-07-14T21:13:07.691Z,4.07
2023-07-14T21:16:01.071Z,4.07
2023-07-14T21:18:53.926Z,4.45
2023-07-14T21:21:47.040Z,3.65
2023-07-14T21:24:40.634Z,3.72
2023-07-14T21:27:35.095Z,4.60
2023-07-14T21:30:29.215Z,4.10
2023-07-14T21:33:28.435Z,4.13
2023-07-14T21:36:22.029Z,3.90
2023-07-14T21:39:17.615Z,4.50
2023-07-14T21:42:14.198Z,3.95
2023-07-14T21:45:16.250Z,3.90
2023-07-14T21:48:21.032Z,4.25
2023-07-14T21:51:18.037Z,3.90
2023-07-14T21:54:14.375Z,3.70
2023-07-14T21:57:12.506Z,3.63
2023-07-14T22:00:10.838Z,3.92
2023-07-14T22:03:05.146Z,3.63
2023-07-14T22:06:00.000Z,3.90
2023-07-14T22:08:53.300Z,4.13
2023-07-14T22:11:47.807Z,4.10
2023-07-14T22:14:41.048Z,4.07
2023-07-14T22:17:34.647Z,4.05
2023-07-14T22:20:30.237Z,4.47
2023-07-14T22:23:25.914Z,4.20
2023-07-14T22:26:22.408Z,4.15
2023-07-14T22:29:16.642Z,3.90
2023-07-14T22:32:14.404Z,4.10
2023-07-14T22:35:15.927Z,4.60
2023-07-14T22:38:12.159Z,4.38
2023-07-14T22:41:18.973Z,4.15
2023-07-14T22:44:15.119Z,3.95
2023-07-14T22:47:11.810Z,3.88
2023-07-14T22:50:09.085Z,3.55
2023-07-14T22:53:02.113Z,4.10
2023-07-14T22:55:57.039Z,4.30
2023-07-14T22:58:51.855Z,4.10
2023-07-14T23:01:45.413Z,4.35
2023-07-14T23:04:39.185Z,4.40
2023-07-14T23:07:32.260Z,3.72
2023-07-14T23:10:24.927Z,3.83
2023-07-14T23:13:22.798Z,3.55
2023-07-14T23:16:19.797Z,3.92
2023-07-14T23:19:14.401Z,3.88
2023-07-14T23:22:09.980Z,3.85
2023-07-14T23:25:03.056Z,3.35
2023-07-14T23:27:56.092Z,3.15
2023-07-14T23:30:51.947Z,3.88
2023-07-14T23:33:50.041Z,3.40
2023-07-14T23:36:44.247Z,3.22
2023-07-14T23:39:37.893Z,4.18
2023-07-14T23:42:31.449Z,3.25
2023-07-14T23:45:26.713Z,3.60
2023-07-14T23:48:20.108Z,3.85
2023-07-14T23:51:17.671Z,4.43
2023-07-14T23:54:15.141Z,3.83
2023-07-14T23:57:09.302Z,4.20
